createdAt,value
2023-08-14T00:01:53.664Z,4.20
2023-08-14T00:04:21.461Z,4.77
2023-08-14T00:06:49.284Z,4.47
2023-08-14T00:09:17.067Z,4.30
2023-08-14T00:11:44.863Z,4.60
2023-08-14T00:14:12.712Z,4.60
2023-08-14T00:16:40.521Z,4.53
2023-08-14T00:19:10.154Z,4.10
2023-08-14T00:21:38.017Z,4.00
2023-08-14T00:24:06.609Z,4.10
2023-08-14T00:26:34.481Z,3.77
2023-08-14T00:29:02.377Z,4.40
2023-08-14T00:31:30.381Z,4.00
2023-08-14T00:33:58.353Z,4.00
2023-08-14T00:36:27.681Z,3.60
2023-08-14T00:38:55.533Z,4.00
2023-08-14T00:41:23.372Z,4.50
2023-08-14T00:43:52.737Z,4.37
2023-08-14T00:46:21.669Z,4.43
2023-08-14T00:48:50.016Z,4.33
2023-08-14T00:51:18.203Z,4.10
2023-08-14T00:53:47.458Z,4.03
2023-08-14T00:56:15.528Z,4.30
2023-08-14T00:58:43.555Z,3.90
2023-08-14T01:01:11.538Z,4.00
2023-08-14T01:03:41.217Z,4.37
2023-08-14T01:06:09.562Z,4.40
2023-08-14T01:08:38.023Z,4.43
2023-08-14T01:11:14.733Z,4.23
2023-08-14T01:13:47.748Z,4.37
2023-08-14T01:16:20.499Z,4.10
2023-08-14T01:18:49.272Z,3.90
2023-08-14T01:21:35.179Z,3.97
2023-08-14T01:24:09.021Z,3.93
2023-08-14T01:26:38.871Z,3.80
2023-08-14T01:29:06.154Z,4.00
2023-08-14T01:31:34.012Z,4.00
2023-08-14T01:34:01.821Z,4.00
2023-08-14T01:36:37.574Z,3.60
2023-08-14T01:39:09.494Z,3.77
2023-08-14T01:41:45.476Z,3.53
2023-08-14T01:44:18.847Z,3.90
2023-08-14T01:46:50.182Z,4.00
2023-08-14T01:49:20.957Z,3.80
2023-08-14T01:51:49.616Z,3.60
2023-08-14T01:54:17.474Z,3.70
2023-08-14T01:56:46.922Z,4.13
2023-08-14T01:59:14.763Z,4.53
2023-08-14T02:01:42.548Z,4.53
2023-08-14T02:04:10.575Z,4.67
2023-08-14T02:06:38.376Z,5.10
2023-08-14T02:09:06.503Z,5.20
2023-08-14T02:11:34.360Z,4.87
2023-08-14T02:14:03.569Z,5.33
2023-08-14T02:16:31.520Z,4.90
2023-08-14T02:18:59.395Z,4.70
2023-08-14T02:21:27.214Z,4.77
2023-08-14T02:23:55.016Z,4.40
2023-08-14T02:26:22.808Z,4.20
2023-08-14T02:28:50.650Z,4.50
2023-08-14T02:31:19.900Z,4.60
2023-08-14T02:33:47.730Z,4.30
2023-08-14T02:36:15.594Z,4.40
2023-08-14T02:38:43.417Z,4.70
2023-08-14T02:41:12.771Z,4.30
2023-08-14T02:43:40.538Z,4.47
2023-08-14T02:46:09.754Z,4.50
2023-08-14T02:48:39.015Z,3.83
2023-08-14T02:51:07.253Z,4.57
2023-08-14T02:53:35.071Z,4.83
2023-08-14T02:56:02.860Z,4.50
2023-08-14T02:58:31.315Z,4.70
2023-08-14T03:00:59.174Z,4.67
2023-08-14T03:03:27.060Z,4.50
2023-08-14T03:05:59.951Z,4.40
2023-08-14T03:08:28.536Z,4.60
2023-08-14T03:10:56.350Z,4.50
2023-08-14T03:13:24.195Z,4.20
2023-08-14T03:15:51.995Z,4.20
2023-08-14T03:18:19.911Z,4.20
2023-08-14T03:20:47.740Z,4.27
2023-08-14T03:23:16.972Z,4.43
2023-08-14T03:25:44.787Z,5.20
2023-08-14T03:28:12.739Z,4.40
2023-08-14T03:30:42.719Z,5.00
2023-08-14T03:33:11.293Z,4.60
2023-08-14T03:35:39.178Z,5.00
2023-08-14T03:38:07.718Z,4.60
2023-08-14T03:40:37.011Z,4.80
2023-08-14T03:43:05.829Z,5.03
2023-08-14T03:45:33.696Z,5.37
2023-08-14T03:48:01.615Z,5.87
2023-08-14T03:50:29.727Z,5.50
2023-08-14T03:52:58.198Z,5.40
2023-08-14T03:55:26.023Z,5.70
2023-08-14T03:57:55.631Z,6.00
2023-08-14T04:00:23.499Z,5.83
2023-08-14T04:02:51.566Z,5.53
2023-08-14T04:05:19.574Z,5.57
2023-08-14T04:07:47.400Z,5.33
2023-08-14T04:10:15.231Z,5.73
2023-08-14T04:12:43.077Z,5.57
2023-08-14T04:15:16.182Z,5.33
2023-08-14T04:17:44.278Z,5.40
2023-08-14T04:20:13.320Z,5.10
2023-08-14T04:22:41.288Z,6.27
2023-08-14T04:25:09.909Z,5.47
2023-08-14T04:27:38.673Z,5.67
2023-08-14T04:30:09.420Z,5.53
2023-08-14T04:32:38.607Z,5.37
2023-08-14T04:35:07.606Z,5.50
2023-08-14T04:37:36.212Z,5.40
2023-08-14T04:40:05.974Z,5.70
2023-08-14T04:42:34.856Z,5.67
2023-08-14T04:45:02.813Z,5.57
2023-08-14T04:47:30.750Z,5.37
2023-08-14T04:50:01.193Z,5.70
2023-08-14T04:52:29.999Z,5.50
2023-08-14T04:54:58.045Z,5.43
2023-08-14T04:57:29.317Z,4.93
2023-08-14T04:59:57.940Z,5.10
2023-08-14T05:02:25.815Z,5.17
2023-08-14T05:04:55.454Z,5.60
2023-08-14T05:07:27.264Z,5.33
2023-08-14T05:09:55.578Z,5.27
2023-08-14T05:12:23.458Z,5.20
2023-08-14T05:14:54.743Z,5.40
2023-08-14T05:17:23.183Z,5.70
2023-08-14T05:19:52.109Z,5.63
2023-08-14T05:22:20.879Z,5.10
2023-08-14T05:24:50.437Z,5.50
2023-08-14T05:27:18.525Z,5.10
2023-08-14T05:29:48.714Z,5.63
2023-08-14T05:32:16.930Z,5.40
2023-08-14T05:34:45.045Z,5.50
2023-08-14T05:37:12.890Z,5.80
2023-08-14T05:39:40.698Z,5.70
2023-08-14T05:42:09.994Z,5.13
2023-08-14T05:44:37.825Z,5.77
2023-08-14T05:47:05.665Z,5.17
2023-08-14T05:49:33.463Z,6.50
2023-08-14T05:52:01.293Z,5.70
2023-08-14T05:54:29.162Z,6.00
2023-08-14T05:56:56.982Z,5.63
2023-08-14T05:59:26.198Z,6.20
2023-08-14T06:01:57.500Z,6.30
2023-08-14T06:04:28.161Z,6.40
2023-08-14T06:06:56.277Z,5.78
2023-08-14T06:09:24.620Z,6.10
2023-08-14T06:11:52.552Z,5.38
2023-08-14T06:14:20.398Z,5.50
2023-08-14T06:16:49.626Z,5.37
2023-08-14T06:19:17.474Z,5.28
2023-08-14T06:21:45.329Z,5.75
2023-08-14T06:24:13.108Z,5.50
2023-08-14T06:26:40.882Z,5.00
2023-08-14T06:29:08.749Z,4.90
2023-08-14T06:31:36.585Z,4.60
2023-08-14T06:34:06.126Z,4.90
2023-08-14T06:36:34.564Z,4.68
2023-08-14T06:39:02.353Z,5.05
2023-08-14T06:41:30.196Z,5.00
2023-08-14T06:43:58.022Z,4.55
2023-08-14T06:46:25.894Z,4.75
2023-08-14T06:48:53.768Z,4.80
2023-08-14T06:51:22.964Z,5.00
2023-08-14T06:53:51.379Z,4.80
2023-08-14T06:56:20.175Z,4.65
2023-08-14T06:58:47.995Z,5.00
2023-08-14T07:01:16.226Z,4.70
2023-08-14T07:03:44.220Z,4.90
2023-08-14T07:06:12.044Z,5.15
2023-08-14T07:08:41.423Z,5.20
2023-08-14T07:11:09.208Z,5.40
2023-08-14T07:13:37.051Z,5.10
2023-08-14T07:16:05.166Z,5.10
2023-08-14T07:18:32.966Z,5.20
2023-08-14T07:21:00.783Z,4.63
2023-08-14T07:23:28.776Z,4.80
2023-08-14T07:25:59.536Z,5.00
2023-08-14T07:28:27.590Z,5.20
2023-08-14T07:30:55.482Z,4.80
2023-08-14T07:33:23.436Z,5.35
2023-08-14T07:35:51.249Z,4.85
2023-08-14T07:38:19.039Z,5.10
2023-08-14T07:40:46.921Z,4.80
2023-08-14T07:43:16.125Z,5.15
2023-08-14T07:45:44.922Z,5.00
2023-08-14T07:48:12.922Z,4.78
2023-08-14T07:50:40.845Z,4.88
2023-08-14T07:53:08.712Z,5.03
2023-08-14T07:55:36.522Z,5.50
2023-08-14T07:58:04.857Z,5.53
2023-08-14T08:00:34.008Z,5.43
2023-08-14T08:03:01.898Z,5.50
2023-08-14T08:05:29.820Z,5.40
2023-08-14T08:07:57.670Z,5.10
2023-08-14T08:10:26.489Z,5.20
2023-08-14T08:12:54.274Z,5.05
2023-08-14T08:15:22.235Z,4.70
2023-08-14T08:17:51.667Z,4.95
2023-08-14T08:20:19.582Z,4.90
2023-08-14T08:22:47.389Z,4.88
2023-08-14T08:25:15.224Z,4.63
2023-08-14T08:27:42.981Z,5.00
2023-08-14T08:30:11.722Z,5.05
2023-08-14T08:32:40.116Z,5.60
2023-08-14T08:35:10.402Z,5.60
2023-08-14T08:37:38.182Z,5.07
2023-08-14T08:40:07.801Z,5.00
2023-08-14T08:42:35.702Z,5.00
2023-08-14T08:45:05.754Z,5.55
2023-08-14T08:47:36.382Z,5.30
2023-08-14T08:50:06.729Z,5.40
2023-08-14T08:52:37.926Z,5.57
2023-08-14T08:55:07.196Z,6.30
2023-08-14T08:57:37.644Z,6.40
2023-08-14T09:00:07.206Z,5.63
2023-08-14T09:02:35.130Z,5.57
2023-08-14T09:05:02.998Z,6.50
2023-08-14T09:07:31.049Z,6.28
2023-08-14T09:10:01.375Z,5.68
2023-08-14T09:12:29.211Z,5.30
2023-08-14T09:15:06.548Z,5.40
2023-08-14T09:17:34.799Z,5.10
2023-08-14T09:20:08.767Z,5.30
2023-08-14T09:22:43.542Z,5.00
2023-08-14T09:25:13.204Z,5.38
2023-08-14T09:27:41.322Z,5.15
2023-08-14T09:30:10.103Z,5.45
2023-08-14T09:32:38.108Z,5.10
2023-08-14T09:35:07.356Z,5.55
2023-08-14T09:37:36.578Z,5.53
2023-08-14T09:40:16.207Z,5.15
2023-08-14T09:42:45.588Z,5.32
2023-08-14T09:45:14.418Z,5.32
2023-08-14T09:47:44.627Z,5.20
2023-08-14T09:50:14.786Z,5.07
2023-08-14T09:52:42.800Z,5.95
2023-08-14T09:55:13.006Z,5.53
2023-08-14T09:57:40.832Z,4.95
2023-08-14T10:00:11.285Z,5.40
2023-08-14T10:02:41.122Z,5.05
2023-08-14T10:05:11.557Z,4.93
2023-08-14T10:07:41.657Z,5.18
2023-08-14T10:10:12.269Z,5.50
2023-08-14T10:12:50.067Z,5.40
2023-08-14T10:15:23.035Z,4.95
2023-08-14T10:17:56.950Z,4.95
2023-08-14T10:20:26.619Z,5.18
2023-08-14T10:22:55.351Z,5.28
2023-08-14T10:25:25.460Z,5.47
2023-08-14T10:27:54.650Z,5.28
2023-08-14T10:30:24.959Z,5.80
2023-08-14T10:32:53.739Z,5.97
2023-08-14T10:35:22.494Z,5.57
2023-08-14T10:38:04.450Z,6.32
2023-08-14T10:40:53.932Z,6.13
2023-08-14T10:43:27.446Z,6.20
2023-08-14T10:45:55.305Z,6.47
2023-08-14T10:48:23.738Z,6.50
2023-08-14T10:51:00.472Z,6.40
2023-08-14T10:53:28.304Z,5.90
2023-08-14T10:55:57.480Z,5.80
2023-08-14T10:58:41.940Z,6.20
2023-08-14T11:01:11.591Z,6.00
2023-08-14T11:03:58.163Z,5.70
2023-08-14T11:06:27.440Z,5.47
2023-08-14T11:09:01.031Z,6.10
2023-08-14T11:11:30.295Z,16.63
2023-08-14T11:13:58.518Z,8.18
2023-08-14T11:16:27.826Z,5.40
2023-08-14T11:18:58.888Z,5.18
2023-08-14T11:21:32.252Z,5.35
2023-08-14T11:24:00.858Z,6.00
2023-08-14T11:26:32.232Z,5.30
2023-08-14T11:29:00.172Z,5.90
2023-08-14T11:31:38.044Z,5.25
2023-08-14T11:34:09.545Z,5.38
2023-08-14T11:36:41.946Z,5.40
2023-08-14T11:39:10.162Z,5.50
2023-08-14T11:41:39.344Z,5.30
2023-08-14T11:44:07.351Z,5.88
2023-08-14T11:46:35.264Z,5.57
2023-08-14T11:49:03.008Z,5.80
2023-08-14T11:51:31.989Z,5.53
2023-08-14T11:54:01.087Z,5.30
2023-08-14T11:56:29.093Z,5.43
2023-08-14T11:59:07.148Z,5.20
2023-08-14T12:01:38.048Z,5.75
2023-08-14T12:04:07.092Z,5.80
2023-08-14T12:06:36.190Z,5.25
2023-08-14T12:09:07.736Z,5.43
2023-08-14T12:11:35.546Z,5.80
2023-08-14T12:14:07.166Z,5.50
2023-08-14T12:16:39.964Z,5.60
2023-08-14T12:19:10.580Z,5.40
2023-08-14T12:21:38.546Z,5.60
2023-08-14T12:24:07.374Z,5.60
2023-08-14T12:26:41.671Z,5.60
2023-08-14T12:29:11.351Z,5.28
2023-08-14T12:31:39.358Z,5.50
2023-08-14T12:34:07.818Z,5.60
2023-08-14T12:36:35.927Z,5.50
2023-08-14T12:39:03.926Z,5.72
2023-08-14T12:41:32.315Z,5.90
2023-08-14T12:44:00.206Z,5.55
2023-08-14T12:46:29.649Z,7.38
2023-08-14T12:48:57.494Z,7.93
2023-08-14T12:51:25.299Z,7.80
2023-08-14T12:53:53.122Z,6.93
2023-08-14T12:58:49.518Z,8.93
2023-08-14T13:01:17.937Z,6.88
2023-08-14T13:03:47.199Z,6.40
2023-08-14T13:06:15.102Z,8.73
2023-08-14T13:08:42.884Z,6.75
2023-08-14T13:11:10.662Z,11.35
2023-08-14T13:13:38.392Z,7.22
2023-08-14T13:16:07.426Z,6.82
2023-08-14T13:18:35.410Z,6.70
2023-08-14T13:21:04.796Z,7.78
2023-08-14T13:23:32.708Z,9.82
2023-08-14T13:26:01.043Z,8.35
2023-08-14T13:28:28.879Z,7.55
2023-08-14T13:30:56.825Z,8.40
2023-08-14T13:33:24.811Z,7.28
2023-08-14T13:35:52.711Z,10.00
2023-08-14T13:38:25.117Z,34.83
2023-08-14T13:40:55.291Z,17.80
2023-08-14T13:43:26.066Z,11.93
2023-08-14T13:45:54.309Z,22.20
2023-08-14T13:48:22.181Z,28.70
2023-08-14T13:50:49.989Z,14.32
2023-08-14T13:53:17.821Z,18.00
2023-08-14T13:55:47.003Z,15.65
2023-08-14T13:58:14.790Z,13.73
2023-08-14T14:00:42.945Z,38.95
2023-08-14T14:03:10.700Z,28.40
2023-08-14T14:05:38.513Z,41.20
2023-08-14T14:08:06.616Z,30.25
2023-08-14T14:10:34.501Z,29.00
2023-08-14T14:13:05.336Z,27.33
2023-08-14T14:15:33.289Z,16.20
2023-08-14T14:18:01.147Z,7.25
2023-08-14T14:20:29.511Z,6.47
2023-08-14T14:22:57.390Z,5.85
2023-08-14T14:25:25.332Z,5.50
2023-08-14T14:27:53.095Z,4.93
2023-08-14T14:30:22.233Z,5.25
2023-08-14T14:32:50.132Z,4.97
2023-08-14T14:35:18.313Z,4.70
2023-08-14T14:37:47.454Z,5.00
2023-08-14T14:40:15.375Z,5.53
2023-08-14T14:42:43.219Z,5.28
2023-08-14T14:45:20.604Z,4.80
2023-08-14T14:47:53.626Z,4.88
2023-08-14T14:50:29.740Z,4.72
2023-08-14T14:52:58.340Z,4.85
2023-08-14T14:55:27.569Z,4.68
2023-08-14T14:57:56.511Z,4.63
2023-08-14T15:00:25.516Z,4.70
2023-08-14T15:02:55.041Z,4.78
2023-08-14T15:07:53.751Z,4.70
2023-08-14T15:10:21.745Z,4.45
2023-08-14T15:12:49.504Z,4.43
2023-08-14T15:15:17.523Z,4.68
2023-08-14T15:17:45.608Z,4.75
2023-08-14T15:20:15.811Z,4.80
2023-08-14T15:22:44.266Z,4.90
2023-08-14T15:25:13.616Z,5.03
2023-08-14T15:27:41.376Z,4.90
2023-08-14T15:30:10.498Z,4.53
2023-08-14T15:32:38.739Z,4.43
2023-08-14T15:35:07.363Z,4.60
2023-08-14T15:37:36.946Z,4.50
2023-08-14T15:40:05.865Z,4.28
2023-08-14T15:42:33.809Z,4.30
2023-08-14T15:45:01.791Z,4.13
2023-08-14T15:47:29.661Z,4.35
2023-08-14T15:49:57.455Z,4.20
2023-08-14T15:52:29.745Z,4.20
2023-08-14T15:54:59.816Z,4.20
2023-08-14T15:57:27.946Z,4.18
2023-08-14T15:59:55.899Z,4.32
2023-08-14T16:02:23.786Z,4.18
2023-08-14T16:04:52.296Z,4.10
2023-08-14T16:07:20.952Z,4.45
2023-08-14T16:09:50.237Z,4.22
2023-08-14T16:12:19.435Z,4.50
2023-08-14T16:14:47.290Z,4.18
2023-08-14T16:17:15.154Z,4.50
2023-08-14T16:19:42.926Z,4.70
2023-08-14T16:22:10.789Z,4.40
2023-08-14T16:24:40.259Z,4.30
2023-08-14T16:27:09.163Z,4.78
2023-08-14T16:29:38.296Z,4.70
2023-08-14T16:32:06.565Z,4.30
2023-08-14T16:34:34.374Z,4.63
2023-08-14T16:37:02.208Z,4.38
2023-08-14T16:39:30.236Z,4.35
2023-08-14T16:41:58.051Z,4.60
2023-08-14T16:44:25.841Z,4.68
2023-08-14T16:46:54.997Z,4.78
2023-08-14T16:49:22.800Z,4.72
2023-08-14T16:51:50.565Z,4.68
2023-08-14T16:54:18.389Z,4.90
2023-08-14T16:56:46.164Z,4.90
2023-08-14T16:59:14.598Z,4.60
2023-08-14T17:01:42.717Z,4.82
2023-08-14T17:04:12.147Z,4.60
2023-08-14T17:06:40.022Z,4.82
2023-08-14T17:09:09.487Z,5.03
2023-08-14T17:11:37.347Z,4.93
2023-08-14T17:14:05.412Z,4.68
2023-08-14T17:16:33.282Z,4.90
2023-08-14T17:19:01.138Z,4.90
2023-08-14T17:21:30.348Z,5.00
2023-08-14T17:23:58.114Z,4.95
2023-08-14T17:26:26.194Z,4.68
2023-08-14T17:28:53.987Z,5.03
2023-08-14T17:31:22.440Z,5.10
2023-08-14T17:33:50.305Z,5.28
2023-08-14T17:36:18.936Z,4.72
2023-08-14T17:38:48.077Z,5.22
2023-08-14T17:41:15.865Z,5.30
2023-08-14T17:43:43.662Z,5.28
2023-08-14T17:46:11.530Z,5.30
2023-08-14T17:48:39.330Z,4.90
2023-08-14T17:51:07.086Z,5.50
2023-08-14T17:53:35.349Z,5.30
2023-08-14T17:56:04.604Z,5.07
2023-08-14T17:58:32.390Z,4.82
2023-08-14T18:01:00.442Z,4.95
2023-08-14T18:03:28.453Z,4.72
2023-08-14T18:05:56.335Z,5.30
2023-08-14T18:08:24.192Z,5.22
2023-08-14T18:10:52.071Z,4.60
2023-08-14T18:13:21.221Z,4.97
2023-08-14T18:15:50.939Z,4.85
2023-08-14T18:18:21.392Z,5.20
2023-08-14T18:20:52.286Z,4.88
2023-08-14T18:23:20.751Z,5.13
2023-08-14T18:25:53.433Z,4.85
2023-08-14T18:28:22.699Z,4.80
2023-08-14T18:30:50.661Z,5.15
2023-08-14T18:33:18.764Z,5.07
2023-08-14T18:35:46.540Z,4.90
2023-08-14T18:38:14.309Z,5.10
2023-08-14T18:40:46.085Z,5.28
2023-08-14T18:43:14.060Z,5.28
2023-08-14T18:45:43.334Z,5.10
2023-08-14T18:48:11.259Z,4.93
2023-08-14T18:50:39.055Z,5.07
2023-08-14T18:53:07.530Z,5.28
2023-08-14T18:55:39.186Z,5.07
2023-08-14T18:58:07.227Z,5.35
2023-08-14T19:00:35.912Z,4.93
2023-08-14T19:03:05.649Z,5.03
2023-08-14T19:05:33.533Z,4.80
2023-08-14T19:08:01.349Z,4.85
2023-08-14T19:10:29.130Z,4.80
2023-08-14T19:12:56.970Z,4.88
2023-08-14T19:15:24.920Z,4.70
2023-08-14T19:17:52.804Z,4.70
2023-08-14T19:20:22.091Z,4.57
2023-08-14T19:22:51.011Z,4.55
2023-08-14T19:25:19.045Z,5.15
2023-08-14T19:27:46.859Z,5.03
2023-08-14T19:30:15.216Z,4.50
2023-08-14T19:32:44.026Z,4.75
2023-08-14T19:35:11.891Z,4.85
2023-08-14T19:37:41.156Z,4.70
2023-08-14T19:40:11.691Z,4.50
2023-08-14T19:42:40.124Z,5.15
2023-08-14T19:45:09.754Z,4.90
2023-08-14T19:47:37.845Z,5.50
2023-08-14T19:50:07.430Z,5.30
2023-08-14T19:52:35.569Z,5.45
2023-08-14T19:55:05.544Z,5.38
2023-08-14T19:57:33.459Z,5.32
2023-08-14T20:00:01.774Z,5.20
2023-08-14T20:02:29.926Z,5.35
2023-08-14T20:04:57.881Z,5.38
2023-08-14T20:07:25.995Z,5.10
2023-08-14T20:09:53.931Z,5.88
2023-08-14T20:12:25.039Z,5.35
2023-08-14T20:14:52.903Z,5.50
2023-08-14T20:17:21.071Z,5.22
2023-08-14T20:19:50.341Z,5.38
2023-08-14T20:22:24.300Z,5.57
2023-08-14T20:24:52.171Z,5.10
2023-08-14T20:27:22.604Z,4.95
2023-08-14T20:29:52.084Z,5.40
2023-08-14T20:32:20.321Z,5.38
2023-08-14T20:34:51.134Z,5.07
2023-08-14T20:37:19.071Z,6.00
2023-08-14T20:39:47.331Z,4.97
2023-08-14T20:42:15.234Z,5.55
2023-08-14T20:44:43.272Z,4.93
2023-08-14T20:47:20.964Z,5.00
2023-08-14T20:49:48.972Z,4.80
2023-08-14T20:52:17.047Z,4.97
2023-08-14T20:54:44.791Z,5.43
2023-08-14T20:57:12.558Z,5.00
2023-08-14T20:59:41.322Z,5.13
2023-08-14T21:02:09.352Z,5.32
2023-08-14T21:04:39.213Z,4.90
2023-08-14T21:07:07.200Z,5.10
2023-08-14T21:09:35.062Z,5.32
2023-08-14T21:12:02.897Z,5.13
2023-08-14T21:14:30.682Z,5.00
2023-08-14T21:16:58.728Z,4.93
2023-08-14T21:19:26.533Z,5.25
2023-08-14T21:21:55.675Z,5.20
2023-08-14T21:24:23.580Z,5.40
2023-08-14T21:26:51.376Z,5.43
2023-08-14T21:29:19.165Z,5.18
2023-08-14T21:31:46.927Z,5.18
2023-08-14T21:34:17.092Z,5.38
2023-08-14T21:36:45.219Z,5.43
2023-08-14T21:39:16.536Z,4.80
2023-08-14T21:41:44.337Z,5.47
2023-08-14T21:44:12.070Z,5.18
2023-08-14T21:46:39.827Z,5.28
2023-08-14T21:49:07.587Z,4.90
2023-08-14T21:51:35.426Z,4.90
2023-08-14T21:54:03.222Z,5.53
2023-08-14T21:56:32.369Z,5.55
2023-08-14T21:59:00.137Z,5.40
2023-08-14T22:01:28.024Z,5.00
2023-08-14T22:03:57.462Z,5.60
2023-08-14T22:06:27.232Z,4.90
2023-08-14T22:08:55.103Z,5.20
2023-08-14T22:11:22.881Z,5.43
2023-08-14T22:13:52.054Z,5.03
2023-08-14T22:16:19.881Z,5.18
2023-08-14T22:18:47.676Z,4.88
2023-08-14T22:21:15.423Z,4.97
2023-08-14T22:23:43.673Z,5.20
2023-08-14T22:26:11.469Z,5.20
2023-08-14T22:28:40.267Z,5.50
2023-08-14T22:31:14.568Z,5.47
2023-08-14T22:33:42.418Z,5.35
2023-08-14T22:36:10.807Z,5.05
2023-08-14T22:38:38.640Z,5.90
2023-08-14T22:41:06.891Z,5.53
2023-08-14T22:43:34.687Z,5.40
2023-08-14T22:46:02.457Z,5.60
2023-08-14T22:48:31.573Z,5.25
2023-08-14T22:50:59.339Z,5.38
2023-08-14T22:53:27.070Z,5.22
2023-08-14T22:55:54.874Z,5.70
2023-08-14T22:58:22.633Z,5.32
2023-08-14T23:00:50.417Z,5.65
2023-08-14T23:03:18.178Z,5.47
2023-08-14T23:05:47.335Z,5.57
2023-08-14T23:08:15.152Z,5.77
2023-08-14T23:10:43.316Z,5.97
2023-08-14T23:13:13.041Z,5.30
2023-08-14T23:15:40.878Z,5.35
2023-08-14T23:18:08.826Z,5.57
2023-08-14T23:20:38.726Z,5.70
2023-08-14T23:23:08.426Z,5.88
2023-08-14T23:25:36.311Z,5.93
2023-08-14T23:28:04.444Z,6.20
2023-08-14T23:30:32.327Z,5.10
2023-08-14T23:33:00.128Z,5.40
2023-08-14T23:35:27.999Z,5.33
2023-08-14T23:37:55.837Z,5.53
2023-08-14T23:40:24.999Z,5.45
2023-08-14T23:42:52.765Z,6.07
2023-08-14T23:45:20.604Z,6.30
2023-08-14T23:47:48.398Z,6.40
2023-08-14T23:50:16.402Z,6.07
2023-08-14T23:52:44.215Z,6.32
2023-08-14T23:55:12.255Z,6.20
2023-08-14T23:57:41.487Z,6.60
